createdAt,value
2023-03-10T00:00:10.674Z,62.50
2023-03-10T00:01:10.663Z,62.50
2023-03-10T00:02:10.650Z,62.50
2023-03-10T00:03:10.640Z,62.50
2023-03-10T00:04:10.709Z,62.50
2023-03-10T00:05:10.618Z,62.50
2023-03-10T00:06:10.754Z,62.50
2023-03-10T00:07:10.599Z,62.50
2023-03-10T00:08:10.587Z,62.50
2023-03-10T00:09:10.573Z,62.50
2023-03-10T00:10:10.564Z,62.50
2023-03-10T00:11:10.579Z,62.50
2023-03-10T00:12:10.563Z,62.50
2023-03-10T00:13:10.552Z,62.50
2023-03-10T00:14:10.551Z,62.50
2023-03-10T00:15:10.521Z,62.50
2023-03-10T00:16:10.623Z,62.50
2023-03-10T00:17:10.513Z,62.50
2023-03-10T00:18:10.497Z,62.50
2023-03-10T00:19:10.470Z,62.50
2023-03-10T00:20:10.462Z,62.50
2023-03-10T00:21:10.454Z,62.50
2023-03-10T00:22:10.433Z,62.50
2023-03-10T00:23:10.450Z,62.50
2023-03-10T00:24:10.416Z,62.50
2023-03-10T00:25:10.403Z,62.50
2023-03-10T00:26:10.393Z,62.50
2023-03-10T00:27:10.404Z,62.50
2023-03-10T00:28:10.393Z,62.50
2023-03-10T00:29:10.362Z,62.50
2023-03-10T00:30:10.352Z,62.50
2023-03-10T00:31:10.499Z,62.50
2023-03-10T00:32:10.384Z,62.50
2023-03-10T00:33:10.346Z,62.50
2023-03-10T00:34:10.315Z,62.50
2023-03-10T00:35:10.299Z,62.50
2023-03-10T00:36:10.336Z,62.50
2023-03-10T00:37:10.279Z,62.50
2023-03-10T00:38:10.292Z,62.50
2023-03-10T00:39:11.847Z,62.50
2023-03-10T00:40:10.272Z,62.50
2023-03-10T00:41:10.241Z,62.50
2023-03-10T00:42:10.256Z,62.50
2023-03-10T00:43:10.300Z,62.50
2023-03-10T00:44:10.214Z,62.50
2023-03-10T00:45:10.217Z,62.50
2023-03-10T00:46:10.227Z,62.50
2023-03-10T00:47:10.194Z,62.50
2023-03-10T00:48:10.165Z,62.50
2023-03-10T00:49:10.191Z,62.50
2023-03-10T00:50:10.163Z,62.50
2023-03-10T00:51:10.150Z,62.50
2023-03-10T00:52:10.130Z,62.50
2023-03-10T00:53:10.113Z,62.50
2023-03-10T00:54:10.099Z,62.50
2023-03-10T00:55:10.092Z,62.50
2023-03-10T00:56:10.099Z,62.50
2023-03-10T00:57:10.074Z,62.50
2023-03-10T00:58:10.056Z,62.50
2023-03-10T00:59:10.076Z,62.50
2023-03-10T01:00:10.036Z,62.50
2023-03-10T01:01:10.104Z,62.50
2023-03-10T01:02:10.014Z,62.50
2023-03-10T01:03:10.004Z,62.50
2023-03-10T01:04:10.078Z,62.50
2023-03-10T01:05:10.004Z,62.50
2023-03-10T01:06:09.970Z,62.60
2023-03-10T01:07:10.024Z,62.50
2023-03-10T01:08:09.951Z,62.50
2023-03-10T01:09:09.945Z,62.60
2023-03-10T01:10:09.955Z,62.50
2023-03-10T01:11:09.918Z,62.50
2023-03-10T01:12:09.926Z,62.50
2023-03-10T01:13:09.898Z,62.60
2023-03-10T01:14:09.884Z,62.60
2023-03-10T01:15:09.903Z,62.60
2023-03-10T01:16:09.927Z,62.60
2023-03-10T01:17:09.882Z,62.60
2023-03-10T01:18:09.844Z,62.60
2023-03-10T01:19:09.834Z,62.60
2023-03-10T01:20:09.838Z,62.60
2023-03-10T01:21:09.812Z,62.60
2023-03-10T01:22:09.825Z,62.60
2023-03-10T01:23:09.790Z,62.60
2023-03-10T01:24:09.779Z,62.60
2023-03-10T01:25:09.768Z,62.60
2023-03-10T01:26:09.760Z,62.60
2023-03-10T01:27:09.770Z,62.60
2023-03-10T01:28:09.739Z,62.60
2023-03-10T01:29:09.734Z,62.60
2023-03-10T01:30:09.726Z,62.60
2023-03-10T01:31:09.763Z,62.60
2023-03-10T01:32:09.773Z,62.60
2023-03-10T01:33:09.686Z,62.60
2023-03-10T01:34:09.674Z,62.60
2023-03-10T01:35:09.662Z,62.60
2023-03-10T01:36:09.731Z,62.60
2023-03-10T01:37:09.658Z,62.60
2023-03-10T01:38:09.636Z,62.60
2023-03-10T01:39:09.622Z,62.60
2023-03-10T01:40:09.634Z,62.60
2023-03-10T01:41:09.611Z,62.60
2023-03-10T01:42:09.592Z,62.60
2023-03-10T01:43:09.576Z,62.60
2023-03-10T01:44:09.564Z,62.60
2023-03-10T01:45:09.575Z,62.60
2023-03-10T01:46:09.612Z,62.60
2023-03-10T01:47:09.559Z,62.60
2023-03-10T01:48:09.543Z,62.60
2023-03-10T01:49:09.510Z,62.60
2023-03-10T01:50:09.504Z,62.60
2023-03-10T01:51:09.487Z,62.60
2023-03-10T01:52:09.474Z,62.60
2023-03-10T01:53:09.486Z,62.60
2023-03-10T01:54:09.457Z,62.60
2023-03-10T01:55:09.448Z,62.60
2023-03-10T01:56:09.440Z,62.60
2023-03-10T01:57:09.422Z,62.60
2023-03-10T01:58:09.433Z,62.60
2023-03-10T01:59:09.409Z,62.60
2023-03-10T02:00:09.411Z,62.60
2023-03-10T02:01:09.422Z,62.60
2023-03-10T02:02:09.473Z,62.60
2023-03-10T02:03:09.392Z,62.60
2023-03-10T02:04:09.385Z,62.60
2023-03-10T02:05:09.340Z,62.60
2023-03-10T02:06:09.327Z,62.60
2023-03-10T02:07:09.317Z,62.60
2023-03-10T02:08:09.308Z,62.60
2023-03-10T02:09:09.317Z,62.60
2023-03-10T02:10:09.282Z,62.60
2023-03-10T02:11:09.278Z,62.60
2023-03-10T02:12:09.265Z,62.60
2023-03-10T02:13:09.255Z,62.60
2023-03-10T02:14:09.268Z,62.60
2023-03-10T02:15:09.251Z,62.60
2023-03-10T02:16:09.263Z,62.60
2023-03-10T02:17:09.211Z,62.60
2023-03-10T02:18:09.285Z,62.60
2023-03-10T02:19:09.216Z,62.60
2023-03-10T02:20:09.216Z,62.60
2023-03-10T02:21:09.171Z,62.60
2023-03-10T02:22:09.179Z,62.60
2023-03-10T02:23:09.151Z,62.60
2023-03-10T02:24:09.144Z,62.60
2023-03-10T02:25:09.139Z,62.60
2023-03-10T02:26:09.182Z,62.60
2023-03-10T02:27:09.135Z,62.60
2023-03-10T02:28:09.098Z,62.60
2023-03-10T02:29:09.101Z,62.60
2023-03-10T02:30:09.081Z,62.60
2023-03-10T02:31:09.090Z,62.60
2023-03-10T02:32:09.110Z,62.60
2023-03-10T02:33:09.043Z,62.60
2023-03-10T02:34:09.038Z,62.60
2023-03-10T02:35:09.046Z,62.60
2023-03-10T02:36:09.077Z,62.60
2023-03-10T02:37:09.000Z,62.60
2023-03-10T02:38:08.991Z,62.60
2023-03-10T02:39:08.979Z,62.60
2023-03-10T02:40:08.970Z,62.60
2023-03-10T02:41:08.981Z,62.60
2023-03-10T02:42:08.968Z,62.60
2023-03-10T02:43:08.935Z,62.60
2023-03-10T02:44:08.928Z,62.60
2023-03-10T02:45:08.919Z,62.60
2023-03-10T02:46:09.024Z,62.60
2023-03-10T02:47:08.912Z,62.60
2023-03-10T02:48:08.886Z,62.60
2023-03-10T02:49:08.872Z,62.60
2023-03-10T02:50:08.863Z,62.60
2023-03-10T02:51:08.877Z,62.60
2023-03-10T02:52:08.865Z,62.60
2023-03-10T02:53:08.849Z,62.60
2023-03-10T02:54:08.832Z,62.60
2023-03-10T02:55:08.812Z,62.60
2023-03-10T02:56:08.793Z,62.60
2023-03-10T02:57:08.787Z,62.60
2023-03-10T02:58:08.799Z,62.60
2023-03-10T02:59:08.765Z,62.60
2023-03-10T03:00:08.753Z,62.60
2023-03-10T03:01:08.832Z,62.60
2023-03-10T03:02:08.732Z,62.60
2023-03-10T03:03:08.755Z,62.60
2023-03-10T03:04:08.790Z,62.60
2023-03-10T03:05:08.703Z,62.60
2023-03-10T03:06:08.705Z,62.60
2023-03-10T03:07:08.706Z,62.60
2023-03-10T03:08:08.686Z,62.60
2023-03-10T03:09:08.663Z,62.63
2023-03-10T03:10:08.664Z,62.60
2023-03-10T03:11:08.661Z,62.60
2023-03-10T03:12:08.635Z,62.60
2023-03-10T03:13:08.634Z,62.60
2023-03-10T03:14:08.602Z,62.60
2023-03-10T03:15:08.608Z,62.63
2023-03-10T03:16:08.704Z,62.63
2023-03-10T03:17:08.573Z,62.60
2023-03-10T03:18:08.588Z,62.60
2023-03-10T03:19:08.574Z,62.60
2023-03-10T03:20:08.542Z,62.60
2023-03-10T03:21:08.527Z,62.70
2023-03-10T03:22:08.517Z,62.70
2023-03-10T03:23:08.567Z,62.70
2023-03-10T03:24:08.514Z,62.60
2023-03-10T03:25:08.504Z,62.60
2023-03-10T03:26:08.493Z,62.63
2023-03-10T03:27:08.463Z,62.63
2023-03-10T03:28:08.453Z,62.63
2023-03-10T03:29:08.441Z,62.63
2023-03-10T03:30:08.450Z,62.63
2023-03-10T03:31:08.418Z,62.63
2023-03-10T03:32:08.498Z,62.60
2023-03-10T03:33:08.431Z,62.63
2023-03-10T03:34:08.387Z,62.63
2023-03-10T03:35:08.376Z,62.60
2023-03-10T03:36:08.440Z,62.63
2023-03-10T03:37:08.381Z,62.63
2023-03-10T03:38:08.349Z,62.60
2023-03-10T03:39:08.355Z,62.63
2023-03-10T03:40:08.326Z,62.60
2023-03-10T03:41:08.338Z,62.63
2023-03-10T03:42:08.300Z,62.60
2023-03-10T03:43:08.309Z,62.63
2023-03-10T03:44:08.278Z,62.63
2023-03-10T03:45:08.288Z,62.70
2023-03-10T03:46:08.310Z,62.63
2023-03-10T03:47:08.254Z,62.60
2023-03-10T03:48:08.253Z,62.63
2023-03-10T03:49:08.227Z,62.60
2023-03-10T03:50:08.213Z,62.60
2023-03-10T03:51:08.251Z,62.63
2023-03-10T03:52:08.200Z,62.60
2023-03-10T03:53:08.182Z,62.63
2023-03-10T03:54:08.175Z,62.73
2023-03-10T03:55:08.191Z,62.73
2023-03-10T03:56:08.154Z,62.60
2023-03-10T03:57:08.169Z,62.63
2023-03-10T03:58:08.136Z,62.63
2023-03-10T03:59:08.118Z,62.73
2023-03-10T04:00:08.131Z,62.63
2023-03-10T04:01:08.101Z,62.63
2023-03-10T04:02:08.163Z,62.73
2023-03-10T04:03:08.125Z,62.73
2023-03-10T04:04:08.092Z,62.60
2023-03-10T04:05:08.056Z,62.73
2023-03-10T04:06:08.066Z,62.73
2023-03-10T04:07:08.039Z,62.73
2023-03-10T04:08:08.024Z,62.63
2023-03-10T04:09:08.018Z,62.73
2023-03-10T04:10:08.036Z,62.73
2023-03-10T04:11:08.016Z,62.73
2023-03-10T04:12:07.995Z,62.63
2023-03-10T04:13:07.975Z,62.73
2023-03-10T04:14:07.966Z,62.63
2023-03-10T04:15:07.976Z,62.63
2023-03-10T04:16:08.015Z,62.73
2023-03-10T04:17:08.826Z,62.73
2023-03-10T04:18:07.937Z,62.73
2023-03-10T04:19:08.064Z,62.73
2023-03-10T04:20:08.538Z,62.63
2023-03-10T04:21:07.884Z,62.73
2023-03-10T04:22:07.871Z,62.73
2023-03-10T04:23:07.884Z,62.73
2023-03-10T04:24:07.851Z,62.73
2023-03-10T04:25:07.841Z,62.73
2023-03-10T04:26:07.829Z,62.73
2023-03-10T04:27:07.955Z,62.73
2023-03-10T04:28:07.835Z,62.73
2023-03-10T04:29:07.823Z,62.73
2023-03-10T04:30:07.791Z,62.73
2023-03-10T04:31:07.863Z,62.73
2023-03-10T04:32:07.764Z,62.73
2023-03-10T04:33:07.787Z,62.73
2023-03-10T04:34:07.751Z,62.63
2023-03-10T04:35:07.733Z,62.73
2023-03-10T04:36:07.799Z,62.73
2023-03-10T04:37:07.714Z,62.73
2023-03-10T04:38:07.730Z,62.73
2023-03-10T04:39:07.693Z,62.73
2023-03-10T04:40:07.681Z,62.73
2023-03-10T04:41:07.675Z,62.73
2023-03-10T04:42:07.661Z,62.73
2023-03-10T04:43:07.791Z,62.73
2023-03-10T04:44:09.522Z,62.73
2023-03-10T04:45:08.631Z,62.73
2023-03-10T04:46:07.690Z,62.73
2023-03-10T04:47:07.609Z,62.73
2023-03-10T04:48:07.596Z,62.73
2023-03-10T04:49:07.612Z,62.73
2023-03-10T04:50:07.583Z,62.63
2023-03-10T04:51:07.569Z,62.63
2023-03-10T04:52:07.555Z,62.63
2023-03-10T04:53:07.544Z,62.63
2023-03-10T04:54:07.559Z,62.73
2023-03-10T04:55:07.523Z,62.73
2023-03-10T04:56:07.527Z,62.63
2023-03-10T04:57:07.502Z,62.73
2023-03-10T04:58:07.493Z,62.73
2023-03-10T04:59:07.531Z,62.73
2023-03-10T05:00:07.481Z,62.63
2023-03-10T05:01:07.518Z,62.63
2023-03-10T05:02:07.541Z,62.73
2023-03-10T05:03:07.435Z,62.73
2023-03-10T05:04:07.522Z,62.73
2023-03-10T05:05:07.412Z,62.73
2023-03-10T05:06:07.407Z,62.73
2023-03-10T05:07:07.392Z,62.73
2023-03-10T05:08:07.381Z,62.73
2023-03-10T05:09:07.367Z,62.73
2023-03-10T05:10:07.417Z,62.73
2023-03-10T05:11:07.354Z,62.73
2023-03-10T05:12:07.342Z,62.73
2023-03-10T05:13:07.324Z,62.73
2023-03-10T05:14:07.407Z,62.63
2023-03-10T05:15:07.351Z,62.63
2023-03-10T05:16:07.392Z,62.73
2023-03-10T05:17:07.302Z,62.73
2023-03-10T05:18:07.272Z,62.73
2023-03-10T05:19:07.258Z,62.73
2023-03-10T05:20:08.824Z,62.73
2023-03-10T05:21:07.241Z,62.73
2023-03-10T05:22:07.240Z,62.73
2023-03-10T05:23:07.237Z,62.73
2023-03-10T05:24:07.205Z,62.73
2023-03-10T05:25:08.220Z,62.73
2023-03-10T05:26:07.191Z,62.73
2023-03-10T05:27:07.189Z,62.73
2023-03-10T05:28:07.161Z,62.73
2023-03-10T05:29:07.153Z,62.73
2023-03-10T05:30:07.780Z,62.73
2023-03-10T05:31:07.164Z,62.73
2023-03-10T05:32:07.128Z,62.73
2023-03-10T05:33:07.128Z,62.73
2023-03-10T05:34:07.098Z,62.63
2023-03-10T05:35:07.105Z,62.63
2023-03-10T05:36:07.168Z,62.63
2023-03-10T05:37:07.069Z,62.73
2023-03-10T05:38:07.054Z,62.63
2023-03-10T05:39:07.083Z,62.73
2023-03-10T05:40:07.039Z,62.63
2023-03-10T05:41:07.046Z,62.73
2023-03-10T05:42:07.011Z,62.73
2023-03-10T05:43:07.001Z,62.73
2023-03-10T05:44:06.997Z,62.73
2023-03-10T05:45:06.982Z,62.73
2023-03-10T05:46:06.995Z,62.73
2023-03-10T05:47:07.159Z,62.73
2023-03-10T05:48:06.947Z,62.63
2023-03-10T05:49:06.967Z,62.63
2023-03-10T05:50:06.947Z,62.73
2023-03-10T05:51:06.944Z,62.63
2023-03-10T05:52:06.903Z,62.73
2023-03-10T05:53:06.893Z,62.73
2023-03-10T05:54:06.896Z,62.63
2023-03-10T05:55:06.875Z,62.73
2023-03-10T05:56:06.913Z,62.63
2023-03-10T05:57:06.861Z,62.63
2023-03-10T05:58:06.841Z,62.73
2023-03-10T05:59:06.907Z,62.73
2023-03-10T06:00:06.822Z,62.63
2023-03-10T06:01:06.807Z,62.63
2023-03-10T06:02:06.799Z,62.63
2023-03-10T06:03:06.944Z,62.63
2023-03-10T06:04:06.860Z,62.73
2023-03-10T06:05:07.626Z,62.63
2023-03-10T06:06:06.830Z,62.63
2023-03-10T06:07:06.747Z,62.73
2023-03-10T06:08:06.758Z,62.63
2023-03-10T06:09:06.732Z,62.63
2023-03-10T06:10:06.721Z,62.63
2023-03-10T06:11:08.299Z,62.63
2023-03-10T06:12:06.699Z,62.63
2023-03-10T06:13:06.686Z,62.63
2023-03-10T06:14:06.683Z,62.63
2023-03-10T06:15:06.658Z,62.63
2023-03-10T06:16:09.209Z,62.63
2023-03-10T06:17:06.635Z,62.63
2023-03-10T06:18:06.628Z,62.63
2023-03-10T06:19:06.907Z,62.63
2023-03-10T06:20:06.613Z,62.63
2023-03-10T06:21:06.601Z,62.63
2023-03-10T06:22:08.380Z,62.63
2023-03-10T06:23:06.580Z,62.63
2023-03-10T06:24:06.563Z,62.63
2023-03-10T06:25:06.554Z,62.63
2023-03-10T06:26:06.547Z,62.63
2023-03-10T06:27:06.536Z,62.63
2023-03-10T06:28:09.739Z,62.63
2023-03-10T06:29:06.515Z,62.63
2023-03-10T06:30:08.496Z,62.63
2023-03-10T06:31:06.490Z,62.63
2023-03-10T06:32:06.626Z,62.63
2023-03-10T06:33:06.475Z,62.63
2023-03-10T06:34:06.456Z,62.63
2023-03-10T06:35:06.472Z,62.63
2023-03-10T06:36:06.464Z,62.63
2023-03-10T06:37:06.447Z,62.63
2023-03-10T06:38:06.482Z,62.63
2023-03-10T06:39:06.406Z,62.63
2023-03-10T06:40:06.395Z,62.63
2023-03-10T06:41:06.384Z,62.63
2023-03-10T06:42:06.378Z,62.63
2023-03-10T06:43:06.452Z,62.63
2023-03-10T06:44:06.350Z,62.63
2023-03-10T06:45:06.341Z,62.63
2023-03-10T06:46:06.450Z,62.63
2023-03-10T06:47:06.322Z,62.63
2023-03-10T06:48:06.311Z,62.63
2023-03-10T06:49:08.626Z,62.63
2023-03-10T06:50:06.291Z,62.63
2023-03-10T06:51:06.301Z,62.63
2023-03-10T06:52:06.275Z,62.63
2023-03-10T06:53:06.257Z,62.63
2023-03-10T06:54:06.247Z,62.63
2023-03-10T06:55:06.367Z,62.63
2023-03-10T06:56:06.244Z,62.63
2023-03-10T06:57:06.213Z,62.63
2023-03-10T06:58:06.205Z,62.73
2023-03-10T06:59:08.341Z,62.63
2023-03-10T07:00:06.186Z,62.63
2023-03-10T07:01:08.368Z,62.63
2023-03-10T07:02:06.169Z,62.73
2023-03-10T07:03:06.217Z,62.63
2023-03-10T07:04:09.091Z,62.63
2023-03-10T07:05:06.250Z,62.63
2023-03-10T07:06:06.117Z,62.63
2023-03-10T07:07:06.201Z,62.63
2023-03-10T07:08:06.099Z,62.63
2023-03-10T07:09:06.081Z,62.63
2023-03-10T07:10:08.177Z,62.63
2023-03-10T07:11:06.065Z,62.63
2023-03-10T07:12:06.076Z,62.63
2023-03-10T07:13:06.081Z,62.63
2023-03-10T07:14:06.077Z,62.63
2023-03-10T07:15:06.129Z,62.63
2023-03-10T07:16:06.041Z,62.63
2023-03-10T07:17:06.153Z,62.63
2023-03-10T07:18:05.982Z,62.63
2023-03-10T07:19:05.979Z,62.73
2023-03-10T07:20:07.771Z,62.63
2023-03-10T07:21:05.952Z,62.63
2023-03-10T07:22:05.938Z,62.63
2023-03-10T07:23:06.013Z,62.73
2023-03-10T07:24:08.356Z,62.63
2023-03-10T07:25:05.910Z,62.73
2023-03-10T07:26:05.897Z,62.63
2023-03-10T07:27:09.038Z,62.73
2023-03-10T07:28:05.882Z,62.73
2023-03-10T07:29:05.867Z,62.73
2023-03-10T07:30:05.856Z,62.73
2023-03-10T07:31:05.920Z,62.73
2023-03-10T07:32:07.871Z,62.73
2023-03-10T07:33:05.859Z,62.73
2023-03-10T07:34:05.809Z,62.73
2023-03-10T07:35:05.811Z,62.70
2023-03-10T07:36:05.836Z,62.70
2023-03-10T07:37:05.805Z,62.73
2023-03-10T07:38:05.775Z,62.70
2023-03-10T07:39:05.807Z,62.73
2023-03-10T07:40:05.750Z,62.70
2023-03-10T07:41:05.738Z,62.73
2023-03-10T07:42:05.722Z,62.70
2023-03-10T07:43:05.716Z,62.84
2023-03-10T07:44:07.766Z,62.81
2023-03-10T07:45:05.689Z,62.84
2023-03-10T07:46:05.696Z,62.84
2023-03-10T07:47:05.668Z,62.81
2023-03-10T07:48:05.660Z,62.81
2023-03-10T07:49:05.651Z,62.81
2023-03-10T07:50:07.371Z,62.70
2023-03-10T07:51:05.630Z,62.70
2023-03-10T07:52:05.614Z,62.81
2023-03-10T07:53:05.605Z,62.81
2023-03-10T07:54:05.592Z,62.81
2023-03-10T07:55:07.729Z,62.81
2023-03-10T07:56:05.601Z,62.81
2023-03-10T07:57:07.678Z,62.81
2023-03-10T07:58:05.551Z,62.81
2023-03-10T07:59:05.542Z,62.81
2023-03-10T08:00:07.955Z,62.81
2023-03-10T08:01:05.545Z,62.70
2023-03-10T08:02:05.862Z,62.70
2023-03-10T08:03:05.513Z,62.60
2023-03-10T08:04:05.676Z,62.60
2023-03-10T08:05:05.558Z,62.60
2023-03-10T08:06:07.536Z,62.60
2023-03-10T08:07:05.454Z,62.60
2023-03-10T08:08:05.458Z,62.60
2023-03-10T08:09:05.437Z,62.60
2023-03-10T08:10:08.201Z,62.60
2023-03-10T08:11:05.436Z,62.50
2023-03-10T08:12:07.802Z,62.50
2023-03-10T08:13:05.395Z,62.50
2023-03-10T08:14:07.789Z,62.50
2023-03-10T08:15:05.368Z,62.50
2023-03-10T08:16:05.380Z,62.50
2023-03-10T08:17:06.049Z,62.50
2023-03-10T08:18:05.331Z,62.50
2023-03-10T08:19:05.649Z,62.50
2023-03-10T08:20:05.309Z,62.60
2023-03-10T08:21:05.310Z,62.60
2023-03-10T08:22:05.295Z,62.60
2023-03-10T08:23:05.282Z,62.70
2023-03-10T08:24:06.843Z,62.81
2023-03-10T08:25:05.275Z,62.81
2023-03-10T08:26:05.250Z,62.70
2023-03-10T08:27:05.281Z,62.70
2023-03-10T08:28:05.230Z,62.90
2023-03-10T08:29:07.372Z,62.81
2023-03-10T08:30:05.210Z,62.81
2023-03-10T08:31:05.648Z,62.81
2023-03-10T08:32:05.873Z,62.81
2023-03-10T08:33:05.334Z,62.81
2023-03-10T08:34:05.425Z,62.81
2023-03-10T08:35:05.422Z,62.70
2023-03-10T08:36:05.302Z,62.81
2023-03-10T08:37:05.136Z,62.90
2023-03-10T08:38:05.118Z,62.90
2023-03-10T08:39:05.103Z,62.90
2023-03-10T08:40:05.116Z,62.90
2023-03-10T08:41:05.121Z,62.81
2023-03-10T08:42:05.099Z,62.81
2023-03-10T08:43:05.090Z,62.81
2023-03-10T08:44:05.048Z,62.90
2023-03-10T08:45:06.744Z,62.90
2023-03-10T08:46:08.666Z,62.90
2023-03-10T08:47:05.100Z,62.90
2023-03-10T08:48:05.011Z,63.01
2023-03-10T08:49:05.017Z,63.01
2023-03-10T08:50:05.116Z,63.01
2023-03-10T08:51:05.132Z,63.01
2023-03-10T08:52:04.962Z,63.01
2023-03-10T08:53:04.954Z,63.01
2023-03-10T08:54:04.977Z,63.01
2023-03-10T08:55:04.932Z,63.01
2023-03-10T08:56:04.919Z,63.01
2023-03-10T08:57:04.915Z,63.01
2023-03-10T08:58:07.008Z,63.01
2023-03-10T08:59:06.435Z,63.01
2023-03-10T09:00:04.897Z,63.01
2023-03-10T09:01:04.870Z,63.01
2023-03-10T09:02:04.951Z,63.01
2023-03-10T09:03:04.907Z,63.01
2023-03-10T09:04:04.973Z,63.01
2023-03-10T09:05:05.061Z,63.01
2023-03-10T09:06:04.820Z,63.01
2023-03-10T09:07:04.816Z,63.01
2023-03-10T09:08:06.969Z,63.01
2023-03-10T09:09:04.797Z,63.01
2023-03-10T09:10:04.858Z,63.01
2023-03-10T09:11:04.791Z,63.01
2023-03-10T09:12:04.767Z,63.10
2023-03-10T09:13:13.760Z,63.10
2023-03-10T09:14:05.879Z,63.10
2023-03-10T09:15:04.740Z,63.10
2023-03-10T09:16:04.781Z,63.10
2023-03-10T09:17:04.911Z,63.10
2023-03-10T09:18:04.684Z,63.21
2023-03-10T09:19:04.672Z,63.10
2023-03-10T09:20:04.670Z,63.21
2023-03-10T09:21:04.664Z,63.21
2023-03-10T09:22:04.688Z,63.21
2023-03-10T09:23:04.715Z,63.21
2023-03-10T09:24:04.838Z,63.21
2023-03-10T09:25:04.619Z,63.21
2023-03-10T09:26:06.894Z,63.10
2023-03-10T09:27:04.582Z,63.21
2023-03-10T09:28:04.571Z,63.21
2023-03-10T09:29:04.561Z,63.10
2023-03-10T09:30:04.553Z,63.10
2023-03-10T09:31:07.344Z,63.21
2023-03-10T09:32:05.741Z,63.10
2023-03-10T09:33:04.654Z,63.10
2023-03-10T09:34:04.514Z,63.31
2023-03-10T09:35:04.496Z,63.61
2023-03-10T09:36:06.975Z,63.51
2023-03-10T09:37:05.664Z,63.61
2023-03-10T09:38:04.468Z,63.61
2023-03-10T09:39:04.468Z,63.61
2023-03-10T09:40:06.283Z,63.51
2023-03-10T09:41:05.705Z,63.41
2023-03-10T09:42:06.590Z,63.41
2023-03-10T09:43:04.413Z,63.31
2023-03-10T09:44:04.417Z,63.31
2023-03-10T09:45:04.403Z,63.31
2023-03-10T09:46:04.415Z,63.21
2023-03-10T09:47:04.828Z,63.21
2023-03-10T09:48:05.006Z,63.38
2023-03-10T09:49:04.347Z,63.38
2023-03-10T09:50:04.340Z,63.18
2023-03-10T09:51:04.329Z,63.21
2023-03-10T09:52:04.416Z,63.18
2023-03-10T09:53:04.319Z,63.18
2023-03-10T09:54:04.336Z,63.18
2023-03-10T09:55:04.285Z,63.18
2023-03-10T09:56:04.273Z,63.18
2023-03-10T09:57:04.285Z,63.38
2023-03-10T09:58:06.062Z,63.48
2023-03-10T09:59:04.243Z,63.58
2023-03-10T10:00:04.246Z,63.58
2023-03-10T10:01:04.227Z,63.78
2023-03-10T10:02:04.249Z,63.89
2023-03-10T10:03:04.240Z,63.89
2023-03-10T10:04:06.018Z,63.89
2023-03-10T10:05:04.368Z,63.78
2023-03-10T10:06:05.164Z,63.89
2023-03-10T10:07:04.154Z,63.99
2023-03-10T10:08:06.478Z,63.89
2023-03-10T10:09:05.435Z,63.78
2023-03-10T10:10:04.144Z,63.68
2023-03-10T10:11:04.113Z,63.68
2023-03-10T10:12:04.158Z,63.89
2023-03-10T10:13:06.463Z,63.68
2023-03-10T10:14:05.126Z,63.78
2023-03-10T10:15:04.066Z,64.09
2023-03-10T10:16:21.269Z,64.09
2023-03-10T10:17:05.182Z,64.49
2023-03-10T10:18:17.626Z,64.29
2023-03-10T10:19:05.213Z,64.29
2023-03-10T10:20:04.435Z,64.29
2023-03-10T10:21:04.000Z,64.19
2023-03-10T10:22:04.066Z,63.99
2023-03-10T10:23:03.976Z,63.99
2023-03-10T10:24:03.974Z,64.19
2023-03-10T10:25:05.884Z,64.09
2023-03-10T10:26:03.946Z,64.09
2023-03-10T10:27:03.934Z,64.09
2023-03-10T10:28:03.923Z,64.39
2023-03-10T10:29:03.911Z,64.49
2023-03-10T10:30:05.883Z,64.19
2023-03-10T10:31:03.960Z,64.49
2023-03-10T10:32:03.986Z,64.59
2023-03-10T10:33:03.871Z,64.79
2023-03-10T10:34:03.880Z,64.70
2023-03-10T10:35:03.885Z,64.29
2023-03-10T10:36:06.363Z,64.09
2023-03-10T10:37:05.795Z,64.19
2023-03-10T10:38:03.818Z,64.19
2023-03-10T10:39:03.803Z,64.19
2023-03-10T10:40:07.765Z,64.19
2023-03-10T10:41:07.035Z,64.19
2023-03-10T10:42:03.775Z,64.09
2023-03-10T10:43:06.199Z,64.19
2023-03-10T10:44:03.753Z,64.39
2023-03-10T10:45:03.741Z,64.29
2023-03-10T10:46:05.010Z,64.29
2023-03-10T10:47:03.722Z,64.29
2023-03-10T10:48:03.710Z,64.19
2023-03-10T10:49:03.712Z,64.09
2023-03-10T10:50:03.743Z,64.19
2023-03-10T10:51:03.705Z,64.19
2023-03-10T10:52:03.665Z,64.19
2023-03-10T10:53:03.766Z,64.19
2023-03-10T10:54:03.648Z,64.09
2023-03-10T10:55:03.869Z,64.29
2023-03-10T10:56:03.625Z,64.19
2023-03-10T10:57:03.619Z,64.29
2023-03-10T10:58:03.607Z,64.29
2023-03-10T10:59:03.594Z,64.29
2023-03-10T11:00:05.538Z,64.19
2023-03-10T11:01:03.724Z,64.09
2023-03-10T11:02:03.763Z,64.29
2023-03-10T11:03:03.549Z,64.29
2023-03-10T11:04:03.545Z,64.19
2023-03-10T11:05:03.530Z,64.19
2023-03-10T11:06:03.518Z,64.19
2023-03-10T11:07:06.005Z,64.09
2023-03-10T11:08:03.500Z,63.99
2023-03-10T11:09:03.483Z,64.09
2023-03-10T11:10:03.478Z,64.19
2023-03-10T11:11:03.468Z,64.19
2023-03-10T11:12:03.492Z,64.29
2023-03-10T11:13:03.441Z,64.39
2023-03-10T11:14:03.432Z,64.29
2023-03-10T11:15:03.632Z,64.39
2023-03-10T11:16:03.472Z,64.29
2023-03-10T11:17:03.403Z,64.39
2023-03-10T11:18:03.386Z,64.49
2023-03-10T11:19:03.389Z,64.39
2023-03-10T11:20:03.855Z,64.29
2023-03-10T11:21:03.464Z,64.29
2023-03-10T11:22:03.352Z,64.29
2023-03-10T11:23:03.359Z,64.39
2023-03-10T11:24:03.324Z,64.39
2023-03-10T11:25:03.327Z,64.39
2023-03-10T11:26:05.426Z,63.99
2023-03-10T11:27:03.312Z,63.99
2023-03-10T11:28:03.307Z,64.09
2023-03-10T11:29:03.283Z,63.89
2023-03-10T11:30:03.257Z,63.78
2023-03-10T11:31:06.699Z,63.78
2023-03-10T11:32:03.238Z,63.89
2023-03-10T11:33:03.226Z,64.09
2023-03-10T11:34:03.224Z,63.99
2023-03-10T11:35:03.203Z,63.99
2023-03-10T11:36:05.278Z,63.99
2023-03-10T11:37:03.194Z,63.99
2023-03-10T11:38:03.169Z,64.09
2023-03-10T11:39:03.196Z,63.99
2023-03-10T11:40:03.942Z,63.99
2023-03-10T11:41:03.138Z,63.89
2023-03-10T11:42:03.140Z,63.89
2023-03-10T11:43:03.122Z,63.99
2023-03-10T11:44:03.103Z,63.99
2023-03-10T11:45:05.511Z,64.19
2023-03-10T11:46:03.106Z,64.39
2023-03-10T11:47:03.084Z,64.19
2023-03-10T11:48:03.061Z,64.39
2023-03-10T11:49:05.036Z,64.49
2023-03-10T11:50:03.061Z,64.29
2023-03-10T11:51:03.034Z,64.19
2023-03-10T11:52:03.021Z,64.29
2023-03-10T11:53:03.009Z,64.49
2023-03-10T11:54:02.997Z,64.59
2023-03-10T11:55:04.868Z,64.70
2023-03-10T11:56:02.974Z,64.70
2023-03-10T11:57:02.973Z,64.59
2023-03-10T11:58:02.951Z,64.19
2023-03-10T11:59:02.954Z,64.29
2023-03-10T12:00:02.930Z,64.29
2023-03-10T12:01:05.185Z,64.39
2023-03-10T12:02:02.936Z,64.49
2023-03-10T12:03:02.900Z,64.70
2023-03-10T12:04:02.908Z,64.29
2023-03-10T12:05:02.933Z,64.09
2023-03-10T12:06:02.880Z,64.39
2023-03-10T12:07:05.073Z,64.49
2023-03-10T12:08:02.874Z,64.59
2023-03-10T12:09:02.835Z,64.39
2023-03-10T12:10:02.829Z,64.29
2023-03-10T12:11:02.834Z,64.39
2023-03-10T12:12:05.011Z,64.29
2023-03-10T12:13:05.453Z,64.39
2023-03-10T12:14:02.779Z,64.39
2023-03-10T12:15:02.766Z,64.49
2023-03-10T12:16:02.843Z,64.39
2023-03-10T12:17:02.789Z,64.59
2023-03-10T12:18:04.551Z,64.70
2023-03-10T12:19:02.730Z,64.70
2023-03-10T12:20:02.716Z,64.90
2023-03-10T12:21:02.703Z,64.90
2023-03-10T12:22:02.732Z,64.59
2023-03-10T12:23:04.580Z,64.90
2023-03-10T12:24:02.668Z,64.79
2023-03-10T12:25:02.659Z,64.70
2023-03-10T12:26:02.666Z,64.79
2023-03-10T12:27:02.672Z,64.79
2023-03-10T12:28:04.688Z,64.90
2023-03-10T12:29:02.616Z,64.90
2023-03-10T12:30:02.607Z,65.10
2023-03-10T12:31:02.677Z,64.90
2023-03-10T12:32:02.718Z,64.79
2023-03-10T12:33:02.571Z,64.79
2023-03-10T12:34:02.577Z,64.90
2023-03-10T12:35:02.555Z,64.79
2023-03-10T12:36:02.620Z,64.70
2023-03-10T12:37:02.529Z,64.79
2023-03-10T12:38:02.515Z,64.70
2023-03-10T12:39:02.535Z,64.90
2023-03-10T12:40:02.493Z,64.79
2023-03-10T12:41:02.483Z,64.79
2023-03-10T12:42:02.521Z,64.90
2023-03-10T12:43:02.481Z,64.90
2023-03-10T12:44:04.268Z,64.90
2023-03-10T12:45:02.443Z,64.79
2023-03-10T12:46:02.431Z,64.79
2023-03-10T12:47:02.446Z,64.90
2023-03-10T12:48:02.433Z,64.90
2023-03-10T12:49:02.401Z,64.90
2023-03-10T12:50:02.571Z,64.90
2023-03-10T12:51:02.372Z,64.79
2023-03-10T12:52:02.362Z,64.79